createdAt,value
2022-12-15T00:02:21.709Z,25.13
2022-12-15T00:05:08.343Z,24.13
2022-12-15T00:07:54.876Z,26.00
2022-12-15T00:10:41.377Z,24.83
2022-12-15T00:13:28.143Z,24.93
2022-12-15T00:16:14.964Z,24.40
2022-12-15T00:19:01.598Z,25.57
2022-12-15T00:21:48.104Z,24.10
2022-12-15T00:24:34.642Z,24.07
2022-12-15T00:27:21.167Z,25.63
2022-12-15T00:30:07.729Z,25.73
2022-12-15T00:32:54.292Z,24.77
2022-12-15T00:35:41.830Z,25.13
2022-12-15T00:38:28.380Z,23.40
2022-12-15T00:41:14.907Z,25.53
2022-12-15T00:44:01.409Z,24.47
2022-12-15T00:46:47.969Z,25.53
2022-12-15T00:49:34.513Z,25.33
2022-12-15T00:52:21.056Z,24.10
2022-12-15T00:55:07.611Z,25.93
2022-12-15T00:57:54.116Z,24.13
2022-12-15T01:00:40.644Z,25.97
2022-12-15T01:03:27.442Z,24.97
2022-12-15T01:06:14.243Z,25.30
2022-12-15T01:09:00.717Z,25.83
2022-12-15T01:11:47.221Z,23.57
2022-12-15T01:14:33.740Z,24.43
2022-12-15T01:17:20.227Z,25.40
2022-12-15T01:20:06.748Z,25.27
2022-12-15T01:22:53.293Z,24.70
2022-12-15T01:25:39.790Z,23.03
2022-12-15T01:28:26.331Z,23.77
2022-12-15T01:31:12.965Z,23.23
2022-12-15T01:33:59.622Z,23.10
2022-12-15T01:36:46.157Z,23.60
2022-12-15T01:39:32.681Z,24.47
2022-12-15T01:42:19.197Z,22.37
2022-12-15T01:45:05.721Z,22.90
2022-12-15T01:47:52.237Z,22.63
2022-12-15T01:50:38.759Z,23.60
2022-12-15T01:53:25.254Z,23.47
2022-12-15T01:56:11.761Z,24.90
2022-12-15T01:58:58.303Z,24.33
2022-12-15T02:01:49.685Z,24.20
2022-12-15T02:04:36.890Z,25.50
2022-12-15T02:07:23.418Z,24.70
2022-12-15T02:10:09.943Z,24.73
2022-12-15T02:12:56.458Z,25.87
2022-12-15T02:15:43.007Z,24.03
2022-12-15T02:18:29.528Z,24.87
2022-12-15T02:21:16.080Z,26.63
2022-12-15T02:24:02.585Z,26.23
2022-12-15T02:26:49.124Z,26.90
2022-12-15T02:29:35.637Z,26.53
2022-12-15T02:32:22.151Z,26.90
2022-12-15T02:35:08.661Z,26.57
2022-12-15T02:37:55.195Z,26.10
2022-12-15T02:40:41.739Z,26.90
2022-12-15T02:43:28.740Z,26.03
2022-12-15T02:46:15.573Z,28.40
2022-12-15T02:49:02.124Z,26.13
2022-12-15T02:51:48.657Z,26.40
2022-12-15T02:54:35.200Z,25.40
2022-12-15T02:57:21.761Z,26.73
2022-12-15T03:00:08.309Z,25.47
2022-12-15T03:02:54.907Z,26.57
2022-12-15T03:05:41.565Z,27.13
2022-12-15T03:08:28.065Z,26.10
2022-12-15T03:11:14.584Z,27.27
2022-12-15T03:14:01.103Z,24.77
2022-12-15T03:16:47.756Z,25.87
2022-12-15T03:19:34.324Z,25.33
2022-12-15T03:22:20.920Z,24.87
2022-12-15T03:25:07.433Z,25.57
2022-12-15T03:27:53.941Z,26.30
2022-12-15T03:30:40.453Z,26.73
2022-12-15T03:33:26.997Z,25.97
2022-12-15T03:36:13.524Z,26.17
2022-12-15T03:39:00.030Z,25.27
2022-12-15T03:41:46.554Z,24.97
2022-12-15T03:44:33.072Z,24.13
2022-12-15T03:47:19.555Z,24.23
2022-12-15T03:50:06.073Z,24.37
2022-12-15T03:52:52.544Z,24.17
2022-12-15T03:55:39.080Z,24.50
2022-12-15T03:58:26.621Z,25.27
2022-12-15T04:01:13.240Z,22.43
2022-12-15T04:04:01.306Z,24.33
2022-12-15T04:06:48.143Z,22.50
2022-12-15T04:09:34.659Z,23.33
2022-12-15T04:12:21.191Z,23.57
2022-12-15T04:15:07.711Z,22.40
2022-12-15T04:17:54.254Z,21.57
2022-12-15T04:20:40.764Z,19.57
2022-12-15T04:23:27.419Z,19.53
2022-12-15T04:26:14.094Z,20.97
2022-12-15T04:29:01.812Z,18.30
2022-12-15T04:31:48.332Z,20.13
2022-12-15T04:34:34.876Z,19.53
2022-12-15T04:37:21.387Z,19.90
2022-12-15T04:40:07.935Z,19.27
2022-12-15T04:42:54.449Z,20.13
2022-12-15T04:45:40.995Z,20.00
2022-12-15T04:48:27.514Z,22.07
2022-12-15T04:51:14.043Z,19.80
2022-12-15T04:54:00.653Z,21.53
2022-12-15T04:56:47.251Z,19.70
2022-12-15T04:59:36.570Z,18.90
2022-12-15T05:02:23.281Z,18.93
2022-12-15T05:05:09.902Z,18.57
2022-12-15T05:07:56.411Z,18.67
2022-12-15T05:10:42.889Z,19.83
2022-12-15T05:13:29.772Z,17.80
2022-12-15T05:16:16.563Z,19.97
2022-12-15T05:19:03.107Z,19.80
2022-12-15T05:21:49.643Z,18.67
2022-12-15T05:24:36.142Z,19.13
2022-12-15T05:27:22.672Z,20.03
2022-12-15T05:30:09.202Z,20.67
2022-12-15T05:32:55.705Z,19.13
2022-12-15T05:35:42.232Z,19.30
2022-12-15T05:38:28.766Z,18.90
2022-12-15T05:41:15.240Z,20.73
2022-12-15T05:44:01.731Z,22.10
2022-12-15T05:46:48.313Z,19.13
2022-12-15T05:49:34.975Z,19.17
2022-12-15T05:52:21.488Z,20.63
2022-12-15T05:55:08.048Z,20.37
2022-12-15T05:57:54.567Z,20.13
2022-12-15T06:00:41.092Z,20.17
2022-12-15T06:03:27.707Z,21.93
2022-12-15T06:06:14.558Z,21.20
2022-12-15T06:09:01.076Z,20.60
2022-12-15T06:11:47.622Z,21.53
2022-12-15T06:14:34.096Z,23.67
2022-12-15T06:17:20.692Z,20.83
2022-12-15T06:20:07.195Z,21.07
2022-12-15T06:22:53.726Z,20.43
2022-12-15T06:25:40.240Z,19.80
2022-12-15T06:28:26.875Z,21.10
2022-12-15T06:31:13.418Z,27.57
2022-12-15T06:34:02.357Z,22.67
2022-12-15T06:36:49.188Z,22.07
2022-12-15T06:39:35.709Z,22.30
2022-12-15T06:42:22.172Z,22.67
2022-12-15T06:45:08.711Z,21.53
2022-12-15T06:47:59.615Z,23.50
2022-12-15T06:50:50.380Z,19.97
2022-12-15T06:53:37.009Z,20.73
2022-12-15T06:56:28.868Z,20.07
2022-12-15T06:59:19.400Z,21.07
2022-12-15T07:02:06.014Z,21.40
2022-12-15T07:04:52.676Z,21.53
2022-12-15T07:07:39.208Z,24.53
2022-12-15T07:10:25.682Z,21.90
2022-12-15T07:13:12.236Z,22.00
2022-12-15T07:15:58.863Z,21.20
2022-12-15T07:18:45.433Z,22.43
2022-12-15T07:21:31.899Z,23.97
2022-12-15T07:24:18.418Z,23.67
2022-12-15T07:27:04.924Z,23.50
2022-12-15T07:29:51.476Z,23.27
2022-12-15T07:32:37.945Z,23.60
2022-12-15T07:35:24.492Z,24.80
2022-12-15T07:38:10.996Z,23.13
2022-12-15T07:40:57.544Z,24.50
2022-12-15T07:43:44.046Z,24.50
2022-12-15T07:46:30.739Z,23.10
2022-12-15T07:49:17.327Z,23.77
2022-12-15T07:52:03.879Z,23.53
2022-12-15T07:54:50.388Z,24.43
2022-12-15T07:57:36.940Z,24.60
2022-12-15T08:00:23.447Z,24.47
2022-12-15T08:03:10.153Z,24.43
2022-12-15T08:06:03.628Z,26.20
2022-12-15T08:08:51.406Z,25.50
2022-12-15T08:11:38.025Z,25.10
2022-12-15T08:14:24.955Z,26.03
2022-12-15T08:17:11.569Z,24.80
2022-12-15T08:19:58.975Z,25.50
2022-12-15T08:22:45.617Z,24.60
2022-12-15T08:25:32.159Z,22.50
2022-12-15T08:28:18.659Z,24.77
2022-12-15T08:31:05.200Z,24.73
2022-12-15T08:33:52.735Z,24.43
2022-12-15T08:36:39.264Z,25.40
2022-12-15T08:39:25.815Z,25.90
2022-12-15T08:42:12.320Z,26.23
2022-12-15T08:44:58.859Z,24.67
2022-12-15T08:47:45.381Z,23.90
2022-12-15T08:50:31.914Z,25.43
2022-12-15T08:53:33.850Z,25.07
2022-12-15T08:56:20.377Z,25.10
2022-12-15T08:59:06.890Z,25.47
2022-12-15T09:01:53.584Z,25.43
2022-12-15T09:04:40.378Z,24.83
2022-12-15T09:07:26.936Z,25.63
2022-12-15T09:10:13.473Z,24.37
2022-12-15T09:12:59.947Z,25.30
2022-12-15T09:16:08.883Z,25.77
2022-12-15T09:18:52.995Z,25.83
2022-12-15T09:21:39.536Z,26.93
2022-12-15T09:24:34.249Z,26.67
2022-12-15T09:27:21.461Z,24.90
2022-12-15T09:30:07.965Z,25.37
2022-12-15T09:32:54.503Z,25.40
2022-12-15T09:35:41.017Z,24.20
2022-12-15T09:38:27.551Z,25.47
2022-12-15T09:41:14.059Z,26.00
2022-12-15T09:44:00.778Z,25.13
2022-12-15T09:46:49.990Z,26.63
2022-12-15T09:49:36.980Z,26.70
2022-12-15T09:52:23.497Z,25.27
2022-12-15T09:55:10.062Z,26.30
2022-12-15T09:57:56.657Z,25.07
2022-12-15T10:00:44.584Z,24.20
2022-12-15T10:03:33.365Z,23.47
2022-12-15T10:06:21.977Z,24.43
2022-12-15T10:09:09.764Z,24.47
2022-12-15T10:11:56.296Z,22.27
2022-12-15T10:14:42.806Z,23.83
2022-12-15T10:17:29.335Z,21.27
2022-12-15T10:20:15.840Z,20.23
2022-12-15T10:23:02.698Z,21.03
2022-12-15T10:25:51.476Z,20.33
2022-12-15T10:28:38.196Z,23.17
2022-12-15T10:31:24.757Z,22.20
2022-12-15T10:34:11.472Z,23.93
2022-12-15T10:36:58.120Z,24.00
2022-12-15T10:39:44.645Z,23.33
2022-12-15T10:42:31.193Z,23.60
2022-12-15T10:45:17.703Z,23.50
2022-12-15T10:48:04.240Z,24.03
2022-12-15T10:50:50.787Z,23.90
2022-12-15T10:53:37.337Z,23.27
2022-12-15T10:56:28.788Z,23.87
2022-12-15T10:59:15.537Z,21.90
2022-12-15T11:02:02.177Z,22.40
2022-12-15T11:04:48.876Z,22.07
2022-12-15T11:07:37.103Z,23.87
2022-12-15T11:10:23.630Z,24.90
2022-12-15T11:13:10.185Z,22.53
2022-12-15T11:15:56.706Z,23.53
2022-12-15T11:18:43.229Z,23.27
2022-12-15T11:21:29.737Z,23.80
2022-12-15T11:24:16.291Z,24.13
2022-12-15T11:27:02.803Z,21.67
2022-12-15T11:32:55.887Z,23.53
2022-12-15T11:35:42.441Z,22.23
2022-12-15T11:38:29.033Z,23.97
2022-12-15T11:41:15.610Z,22.20
2022-12-15T11:44:06.227Z,22.37
2022-12-15T11:46:53.251Z,22.23
2022-12-15T11:49:41.447Z,21.50
2022-12-15T11:52:28.440Z,20.80
2022-12-15T11:55:14.965Z,20.50
2022-12-15T11:58:01.519Z,19.10
2022-12-15T12:00:47.988Z,20.37
2022-12-15T12:03:35.398Z,20.77
2022-12-15T12:06:21.868Z,20.43
2022-12-15T12:09:08.401Z,19.70
2022-12-15T12:11:54.916Z,20.63
2022-12-15T12:14:41.468Z,19.77
2022-12-15T12:17:27.988Z,20.40
2022-12-15T12:20:14.544Z,19.70
2022-12-15T12:23:01.052Z,21.30
2022-12-15T12:25:47.609Z,19.23
2022-12-15T12:28:35.557Z,19.60
2022-12-15T12:31:22.443Z,21.30
2022-12-15T12:34:08.982Z,20.43
2022-12-15T12:36:55.537Z,19.87
2022-12-15T12:39:42.051Z,19.00
2022-12-15T12:42:28.762Z,18.43
2022-12-15T12:45:15.281Z,18.00
2022-12-15T12:48:02.003Z,18.93
2022-12-15T12:50:48.514Z,18.50
2022-12-15T12:53:37.199Z,19.00
2022-12-15T12:56:23.722Z,19.73
2022-12-15T12:59:10.269Z,18.97
2022-12-15T13:01:57.003Z,18.80
2022-12-15T13:04:43.723Z,19.73
2022-12-15T13:07:30.227Z,18.13
2022-12-15T13:10:16.840Z,20.07
2022-12-15T13:13:03.335Z,19.60
2022-12-15T13:15:50.991Z,19.70
2022-12-15T13:18:38.033Z,18.77
2022-12-15T13:21:24.583Z,18.70
2022-12-15T13:24:11.104Z,19.03
2022-12-15T13:26:57.616Z,19.70
2022-12-15T13:29:45.426Z,19.37
2022-12-15T13:32:35.256Z,20.57
2022-12-15T13:35:21.814Z,20.73
2022-12-15T13:38:08.348Z,19.07
2022-12-15T13:40:54.816Z,19.87
2022-12-15T13:43:41.363Z,20.03
2022-12-15T13:46:27.940Z,20.67
2022-12-15T13:49:14.583Z,19.97
2022-12-15T13:52:01.116Z,20.17
2022-12-15T13:54:47.648Z,19.13
2022-12-15T13:57:37.801Z,18.27
2022-12-15T14:00:24.353Z,19.13
2022-12-15T14:03:10.898Z,19.17
2022-12-15T14:05:58.869Z,18.67
2022-12-15T14:08:45.540Z,19.57
2022-12-15T14:11:52.463Z,19.07
2022-12-15T14:14:39.992Z,17.67
2022-12-15T14:17:26.630Z,18.07
2022-12-15T14:20:13.162Z,18.03
2022-12-15T14:22:59.696Z,17.30
2022-12-15T14:25:46.261Z,19.23
2022-12-15T14:28:32.769Z,18.90
2022-12-15T14:31:19.322Z,18.47
2022-12-15T14:34:05.858Z,19.33
2022-12-15T14:36:52.378Z,18.10
2022-12-15T14:39:38.944Z,18.80
2022-12-15T14:42:25.469Z,18.97
2022-12-15T14:45:12.019Z,18.67
2022-12-15T14:48:21.544Z,20.20
2022-12-15T14:51:05.061Z,19.00
2022-12-15T14:53:53.193Z,19.23
2022-12-15T14:56:39.944Z,19.97
2022-12-15T14:59:26.457Z,21.63
2022-12-15T15:02:13.126Z,20.80
2022-12-15T15:03:13.596Z,22.97
2022-12-15T15:04:59.786Z,19.53
2022-12-15T15:07:46.346Z,20.87
2022-12-15T15:10:32.865Z,20.20
2022-12-15T15:13:19.408Z,19.03
2022-12-15T15:16:05.881Z,21.57
2022-12-15T15:18:52.419Z,20.43
2022-12-15T15:21:38.928Z,20.97
2022-12-15T15:24:25.485Z,19.37
2022-12-15T15:27:12.029Z,21.03
2022-12-15T15:29:58.597Z,19.33
2022-12-15T15:32:45.121Z,19.33
2022-12-15T15:35:31.663Z,19.83
2022-12-15T15:38:18.176Z,18.50
2022-12-15T15:41:04.728Z,20.67
2022-12-15T15:43:51.244Z,19.60
2022-12-15T15:46:37.800Z,19.10
2022-12-15T15:49:24.323Z,21.10
2022-12-15T15:52:10.873Z,19.97
2022-12-15T15:54:57.384Z,19.87
2022-12-15T15:57:43.896Z,19.07
2022-12-15T16:00:31.441Z,21.70
2022-12-15T16:03:18.198Z,21.10
2022-12-15T16:06:04.811Z,22.13
2022-12-15T16:08:51.363Z,20.97
2022-12-15T16:11:37.884Z,20.77
2022-12-15T16:14:24.429Z,20.33
2022-12-15T16:17:10.936Z,21.83
2022-12-15T16:19:57.481Z,20.77
2022-12-15T16:22:43.949Z,23.13
2022-12-15T16:25:34.754Z,22.80
2022-12-15T16:28:27.913Z,23.20
2022-12-15T16:31:14.645Z,20.57
2022-12-15T16:34:01.173Z,19.57
2022-12-15T16:36:47.769Z,20.73
2022-12-15T16:39:34.292Z,19.97
2022-12-15T16:42:20.779Z,19.50
2022-12-15T16:45:07.328Z,19.03
2022-12-15T16:47:53.803Z,21.60
2022-12-15T16:50:41.540Z,21.03
2022-12-15T16:53:28.017Z,20.90
2022-12-15T16:56:14.563Z,20.77
2022-12-15T16:59:32.570Z,19.93
2022-12-15T17:02:07.832Z,20.57
2022-12-15T17:04:54.419Z,21.27
2022-12-15T17:07:40.940Z,19.37
2022-12-15T17:10:27.456Z,20.17
2022-12-15T17:13:13.976Z,20.97
2022-12-15T17:16:00.560Z,20.00
2022-12-15T17:18:47.139Z,20.27
2022-12-15T17:21:33.716Z,19.90
2022-12-15T17:24:20.220Z,22.70
2022-12-15T17:27:06.768Z,21.30
2022-12-15T17:29:53.272Z,22.23
2022-12-15T17:32:39.835Z,21.93
2022-12-15T17:35:26.355Z,21.97
2022-12-15T17:38:12.894Z,21.50
2022-12-15T17:40:59.424Z,22.63
2022-12-15T17:43:49.064Z,22.50
2022-12-15T17:46:50.934Z,22.87
2022-12-15T17:49:38.713Z,22.83
2022-12-15T17:52:25.732Z,23.27
2022-12-15T17:55:12.253Z,22.37
2022-12-15T17:57:58.786Z,22.67
2022-12-15T18:00:49.177Z,21.97
2022-12-15T18:03:36.629Z,21.73
2022-12-15T18:06:23.636Z,23.57
2022-12-15T18:09:10.148Z,23.03
2022-12-15T18:11:56.684Z,22.50
2022-12-15T18:14:43.215Z,22.33
2022-12-15T18:17:29.796Z,22.90
2022-12-15T18:20:16.313Z,22.43
2022-12-15T18:23:02.987Z,21.97
2022-12-15T18:25:49.495Z,21.07
2022-12-15T18:28:36.044Z,22.90
2022-12-15T18:31:22.602Z,20.27
2022-12-15T18:34:10.136Z,21.30
2022-12-15T18:36:56.654Z,23.37
2022-12-15T18:39:43.188Z,21.97
2022-12-15T18:42:29.701Z,22.57
2022-12-15T18:45:16.332Z,23.97
2022-12-15T18:48:02.813Z,22.97
2022-12-15T18:50:49.352Z,21.63
2022-12-15T18:53:36.033Z,22.30
2022-12-15T18:56:22.724Z,23.40
2022-12-15T18:59:09.237Z,21.57
2022-12-15T19:01:55.944Z,20.20
2022-12-15T19:04:42.574Z,19.93
2022-12-15T19:07:29.122Z,21.53
2022-12-15T19:10:15.644Z,18.17
2022-12-15T19:13:02.201Z,20.50
2022-12-15T19:15:48.680Z,21.27
2022-12-15T19:18:35.225Z,18.80
2022-12-15T19:21:21.695Z,21.10
2022-12-15T19:24:08.240Z,22.73
2022-12-15T19:26:54.732Z,22.43
2022-12-15T19:29:41.252Z,22.00
2022-12-15T19:32:27.771Z,23.00
2022-12-15T19:35:14.320Z,20.90
2022-12-15T19:38:00.831Z,21.87
2022-12-15T19:40:47.385Z,21.83
2022-12-15T19:43:34.266Z,20.53
2022-12-15T19:46:21.183Z,19.33
2022-12-15T19:49:07.706Z,21.00
2022-12-15T19:51:54.248Z,21.93
2022-12-15T19:54:40.765Z,21.30
2022-12-15T19:57:27.304Z,20.17
2022-12-15T20:00:13.806Z,19.80
2022-12-15T20:03:00.464Z,20.83
2022-12-15T20:05:47.137Z,18.77
2022-12-15T20:08:33.652Z,19.90
2022-12-15T20:11:20.190Z,18.47
2022-12-15T20:14:06.697Z,19.33
2022-12-15T20:16:53.276Z,18.37
2022-12-15T20:19:39.784Z,18.70
2022-12-15T20:22:26.300Z,19.33
2022-12-15T20:25:12.816Z,19.13
2022-12-15T20:27:59.345Z,18.33
2022-12-15T20:30:45.852Z,17.40
2022-12-15T20:33:32.795Z,17.77
2022-12-15T20:36:19.498Z,18.60
2022-12-15T20:39:06.032Z,17.83
2022-12-15T20:41:52.544Z,16.70
2022-12-15T20:44:39.077Z,16.73
2022-12-15T20:47:25.614Z,17.80
2022-12-15T20:50:12.136Z,16.43
2022-12-15T20:52:58.692Z,16.87
2022-12-15T20:55:45.205Z,16.90
2022-12-15T20:58:33.429Z,17.60
2022-12-15T21:01:20.159Z,16.47
2022-12-15T21:04:07.027Z,17.13
2022-12-15T21:06:54.991Z,17.77
2022-12-15T21:09:41.813Z,18.20
2022-12-15T21:12:28.321Z,17.07
2022-12-15T21:15:14.860Z,17.10
2022-12-15T21:18:40.159Z,18.00
2022-12-15T21:21:07.892Z,16.83
2022-12-15T21:23:54.685Z,14.43
2022-12-15T21:26:41.209Z,15.03
2022-12-15T21:29:27.725Z,16.50
2022-12-15T21:32:14.256Z,17.10
2022-12-15T21:35:00.786Z,17.80
2022-12-15T21:37:47.409Z,15.90
2022-12-15T21:40:33.923Z,16.00
2022-12-15T21:43:20.460Z,16.63
2022-12-15T21:46:07.021Z,16.90
2022-12-15T21:48:54.700Z,16.80
2022-12-15T21:51:41.207Z,17.73
2022-12-15T21:54:31.205Z,15.00
2022-12-15T21:57:18.114Z,16.80
2022-12-15T22:00:04.665Z,16.97
2022-12-15T22:02:51.255Z,17.60
2022-12-15T22:05:37.833Z,16.13
2022-12-15T22:08:24.294Z,15.60
2022-12-15T22:11:10.820Z,16.77
2022-12-15T22:13:57.325Z,17.33
2022-12-15T22:16:43.811Z,16.07
2022-12-15T22:19:30.316Z,17.83
2022-12-15T22:22:16.814Z,16.63
2022-12-15T22:25:03.335Z,16.07
2022-12-15T22:27:49.893Z,16.83
2022-12-15T22:30:38.323Z,16.33
2022-12-15T22:33:24.883Z,16.77
2022-12-15T22:36:11.386Z,15.77
2022-12-15T22:38:59.697Z,14.37
2022-12-15T22:41:49.459Z,15.77
2022-12-15T22:44:35.982Z,14.73
2022-12-15T22:47:22.514Z,15.00
2022-12-15T22:50:09.015Z,13.67
2022-12-15T22:52:55.603Z,14.70
2022-12-15T22:55:42.104Z,14.50
2022-12-15T22:58:28.866Z,13.93
2022-12-15T23:01:15.500Z,13.97
2022-12-15T23:04:02.046Z,13.90
2022-12-15T23:06:48.556Z,14.03
2022-12-15T23:09:35.092Z,13.57
2022-12-15T23:12:21.554Z,11.53
2022-12-15T23:15:08.122Z,14.33
2022-12-15T23:17:54.651Z,13.40
2022-12-15T23:20:41.603Z,13.57
2022-12-15T23:23:28.115Z,13.07
2022-12-15T23:26:14.666Z,13.23
2022-12-15T23:29:01.184Z,12.33
2022-12-15T23:31:47.717Z,11.77
2022-12-15T23:34:34.269Z,11.37
2022-12-15T23:37:20.768Z,9.50
2022-12-15T23:40:07.275Z,11.73
2022-12-15T23:42:53.834Z,12.40
2022-12-15T23:45:41.688Z,12.53
2022-12-15T23:48:28.191Z,11.87
2022-12-15T23:51:14.703Z,12.13
2022-12-15T23:54:01.239Z,11.77
2022-12-15T23:56:47.744Z,12.17
2022-12-15T23:59:34.274Z,12.70
